sensor_id;sensor_type;location;lat;lon;timestamp;temperature;humidity
12321;DHT22;6225;52.720;8.276;2022-08-19T12:47:47;24.10;99.90
12321;DHT22;6225;52.720;8.276;2022-08-19T12:50:31;24.10;99.90
12321;DHT22;6225;52.720;8.276;2022-08-19T12:53:16;24.30;99.90
12321;DHT22;6225;52.720;8.276;2022-08-19T12:56:00;24.40;99.90
12321;DHT22;6225;52.720;8.276;2022-08-19T12:58:44;24.50;99.90
12321;DHT22;6225;52.720;8.276;2022-08-19T13:01:29;24.70;99.90
12321;DHT22;6225;52.720;8.276;2022-08-19T13:04:16;24.70;99.90
12321;DHT22;6225;52.720;8.276;2022-08-19T13:07:00;24.80;99.90
12321;DHT22;6225;52.720;8.276;2022-08-19T13:09:44;24.90;99.90
12321;DHT22;6225;52.720;8.276;2022-08-19T13:12:28;24.90;99.90
12321;DHT22;6225;52.720;8.276;2022-08-19T13:15:14;25.00;99.90
12321;DHT22;6225;52.720;8.276;2022-08-19T13:17:59;25.00;99.90
12321;DHT22;6225;52.720;8.276;2022-08-19T13:20:43;25.10;99.90
12321;DHT22;6225;52.720;8.276;2022-08-19T13:23:27;25.30;99.90
12321;DHT22;6225;52.720;8.276;2022-08-19T13:26:12;25.20;99.90
12321;DHT22;6225;52.720;8.276;2022-08-19T13:28:57;25.20;99.90
12321;DHT22;6225;52.720;8.276;2022-08-19T13:32:00;25.20;99.90
12321;DHT22;6225;52.720;8.276;2022-08-19T13:35:04;25.30;99.90
12321;DHT22;6225;52.720;8.276;2022-08-19T13:37:48;25.30;99.90
12321;DHT22;6225;52.720;8.276;2022-08-19T13:40:33;25.20;99.90
12321;DHT22;6225;52.720;8.276;2022-08-19T13:43:19;25.30;99.90
12321;DHT22;6225;52.720;8.276;2022-08-19T13:46:09;25.30;99.90
12321;DHT22;6225;52.720;8.276;2022-08-19T13:48:53;25.30;99.90
12321;DHT22;6225;52.720;8.276;2022-08-19T13:51:38;25.50;99.90
12321;DHT22;6225;52.720;8.276;2022-08-19T13:54:24;25.60;99.90
12321;DHT22;6225;52.720;8.276;2022-08-19T13:57:08;25.60;99.90
12321;DHT22;6225;52.720;8.276;2022-08-19T13:59:52;25.60;99.90
12321;DHT22;6225;52.720;8.276;2022-08-19T14:02:37;25.70;99.90
12321;DHT22;6225;52.720;8.276;2022-08-19T14:05:24;25.70;99.90
12321;DHT22;6225;52.720;8.276;2022-08-19T14:08:09;25.80;99.90
12321;DHT22;6225;52.720;8.276;2022-08-19T14:10:54;26.00;99.90
12321;DHT22;6225;52.720;8.276;2022-08-19T14:13:38;26.00;99.90
12321;DHT22;6225;52.720;8.276;2022-08-19T14:16:22;26.00;99.90
12321;DHT22;6225;52.720;8.276;2022-08-19T14:19:06;26.00;99.90
12321;DHT22;6225;52.720;8.276;2022-08-19T14:21:51;26.10;99.90
12321;DHT22;6225;52.720;8.276;2022-08-19T14:24:37;26.10;99.90
12321;DHT22;6225;52.720;8.276;2022-08-19T14:27:23;26.10;99.90
12321;DHT22;6225;52.720;8.276;2022-08-19T14:30:11;26.20;99.90
12321;DHT22;6225;52.720;8.276;2022-08-19T14:32:57;26.20;99.90
12321;DHT22;6225;52.720;8.276;2022-08-19T14:35:42;26.20;99.90
12321;DHT22;6225;52.720;8.276;2022-08-19T14:38:28;26.20;99.90
12321;DHT22;6225;52.720;8.276;2022-08-19T14:41:18;26.20;99.90
12321;DHT22;6225;52.720;8.276;2022-08-19T14:44:03;26.30;99.90
12321;DHT22;6225;52.720;8.276;2022-08-19T14:46:47;26.30;99.90
12321;DHT22;6225;52.720;8.276;2022-08-19T14:49:31;26.50;99.90
12321;DHT22;6225;52.720;8.276;2022-08-19T14:52:15;26.50;99.90
12321;DHT22;6225;52.720;8.276;2022-08-19T14:55:00;26.50;99.90
12321;DHT22;6225;52.720;8.276;2022-08-19T14:57:45;26.60;99.90
12321;DHT22;6225;52.720;8.276;2022-08-19T15:00:29;26.60;99.90
12321;DHT22;6225;52.720;8.276;2022-08-19T15:03:13;26.50;99.90
12321;DHT22;6225;52.720;8.276;2022-08-19T15:05:58;26.50;99.90
12321;DHT22;6225;52.720;8.276;2022-08-19T15:08:43;26.50;99.90
12321;DHT22;6225;52.720;8.276;2022-08-19T15:11:29;26.50;99.90
12321;DHT22;6225;52.720;8.276;2022-08-19T15:14:13;26.60;99.90
12321;DHT22;6225;52.720;8.276;2022-08-19T15:16:59;26.60;99.90
12321;DHT22;6225;52.720;8.276;2022-08-19T15:19:43;26.70;99.90
12321;DHT22;6225;52.720;8.276;2022-08-19T15:22:27;26.70;99.90
12321;DHT22;6225;52.720;8.276;2022-08-19T15:25:14;26.70;99.90
12321;DHT22;6225;52.720;8.276;2022-08-19T15:27:58;26.70;99.90
12321;DHT22;6225;52.720;8.276;2022-08-19T15:30:44;26.70;99.90
12321;DHT22;6225;52.720;8.276;2022-08-19T15:33:31;26.70;99.90
12321;DHT22;6225;52.720;8.276;2022-08-19T15:36:16;26.80;99.90
12321;DHT22;6225;52.720;8.276;2022-08-19T15:39:00;26.90;99.90
12321;DHT22;6225;52.720;8.276;2022-08-19T15:41:45;26.90;99.90
12321;DHT22;6225;52.720;8.276;2022-08-19T15:44:30;26.90;99.90
12321;DHT22;6225;52.720;8.276;2022-08-19T15:47:14;26.90;99.90
12321;DHT22;6225;52.720;8.276;2022-08-19T15:49:58;26.80;99.90
12321;DHT22;6225;52.720;8.276;2022-08-19T15:52:53;26.80;99.90
12321;DHT22;6225;52.720;8.276;2022-08-19T15:55:43;26.80;99.90
12321;DHT22;6225;52.720;8.276;2022-08-19T15:58:28;26.80;99.90
12321;DHT22;6225;52.720;8.276;2022-08-19T16:01:31;26.80;99.90
12321;DHT22;6225;52.720;8.276;2022-08-19T16:04:34;26.80;99.90
12321;DHT22;6225;52.720;8.276;2022-08-19T16:07:37;26.80;99.90
12321;DHT22;6225;52.720;8.276;2022-08-19T16:10:22;26.70;99.90
12321;DHT22;6225;52.720;8.276;2022-08-19T16:13:06;26.70;99.90
12321;DHT22;6225;52.720;8.276;2022-08-19T16:15:50;26.60;99.90
12321;DHT22;6225;52.720;8.276;2022-08-19T16:18:36;26.60;99.90
12321;DHT22;6225;52.720;8.276;2022-08-19T16:21:22;26.60;99.90
12321;DHT22;6225;52.720;8.276;2022-08-19T16:24:08;26.50;99.90
12321;DHT22;6225;52.720;8.276;2022-08-19T16:26:54;26.50;99.90
12321;DHT22;6225;52.720;8.276;2022-08-19T16:29:38;26.50;99.90
12321;DHT22;6225;52.720;8.276;2022-08-19T16:32:22;26.40;99.90
12321;DHT22;6225;52.720;8.276;2022-08-19T16:35:07;26.50;99.90
12321;DHT22;6225;52.720;8.276;2022-08-19T16:37:51;26.40;99.90
12321;DHT22;6225;52.720;8.276;2022-08-19T16:40:36;26.40;99.90
12321;DHT22;6225;52.720;8.276;2022-08-19T16:43:20;26.40;99.90
12321;DHT22;6225;52.720;8.276;2022-08-19T16:46:05;26.30;99.90
12321;DHT22;6225;52.720;8.276;2022-08-19T16:48:50;26.30;99.90
12321;DHT22;6225;52.720;8.276;2022-08-19T16:51:35;26.30;99.90
12321;DHT22;6225;52.720;8.276;2022-08-19T16:54:20;26.30;99.90
12321;DHT22;6225;52.720;8.276;2022-08-19T16:57:04;26.30;99.90
12321;DHT22;6225;52.720;8.276;2022-08-19T16:59:51;26.20;99.90
12321;DHT22;6225;52.720;8.276;2022-08-19T17:02:39;26.10;99.90
12321;DHT22;6225;52.720;8.276;2022-08-19T17:05:23;26.00;99.90
12321;DHT22;6225;52.720;8.276;2022-08-19T17:08:12;25.90;99.90
12321;DHT22;6225;52.720;8.276;2022-08-19T17:10:58;26.00;99.90
12321;DHT22;6225;52.720;8.276;2022-08-19T17:13:43;26.00;99.90
12321;DHT22;6225;52.720;8.276;2022-08-19T17:16:30;26.00;99.90
12321;DHT22;6225;52.720;8.276;2022-08-19T17:19:22;26.10;99.90
12321;DHT22;6225;52.720;8.276;2022-08-19T17:22:10;26.00;99.90
12321;DHT22;6225;52.720;8.276;2022-08-19T17:24:56;26.00;99.90
12321;DHT22;6225;52.720;8.276;2022-08-19T17:27:42;26.00;99.90
12321;DHT22;6225;52.720;8.276;2022-08-19T17:30:27;26.00;99.90
12321;DHT22;6225;52.720;8.276;2022-08-19T17:33:18;26.00;99.90
12321;DHT22;6225;52.720;8.276;2022-08-19T17:36:03;26.00;99.90
12321;DHT22;6225;52.720;8.276;2022-08-19T17:38:53;25.90;99.90
12321;DHT22;6225;52.720;8.276;2022-08-19T17:41:39;25.90;99.90
12321;DHT22;6225;52.720;8.276;2022-08-19T17:44:24;25.80;99.90
12321;DHT22;6225;52.720;8.276;2022-08-19T17:47:08;25.80;99.90
12321;DHT22;6225;52.720;8.276;2022-08-19T17:49:53;25.70;99.90
12321;DHT22;6225;52.720;8.276;2022-08-19T17:52:38;25.60;99.90
12321;DHT22;6225;52.720;8.276;2022-08-19T17:55:23;25.70;99.90
12321;DHT22;6225;52.720;8.276;2022-08-19T17:58:08;25.60;99.90
12321;DHT22;6225;52.720;8.276;2022-08-19T18:00:53;25.60;99.90
12321;DHT22;6225;52.720;8.276;2022-08-19T18:03:46;25.60;99.90
12321;DHT22;6225;52.720;8.276;2022-08-19T18:06:35;25.60;99.90
12321;DHT22;6225;52.720;8.276;2022-08-19T18:09:28;25.60;99.90
12321;DHT22;6225;52.720;8.276;2022-08-19T18:12:20;25.60;99.90
12321;DHT22;6225;52.720;8.276;2022-08-19T18:15:11;25.60;99.90
12321;DHT22;6225;52.720;8.276;2022-08-19T18:17:57;25.50;99.90
12321;DHT22;6225;52.720;8.276;2022-08-19T18:20:48;25.50;99.90
12321;DHT22;6225;52.720;8.276;2022-08-19T18:24:02;25.50;99.90
12321;DHT22;6225;52.720;8.276;2022-08-19T18:26:50;25.40;99.90
12321;DHT22;6225;52.720;8.276;2022-08-19T18:29:57;25.40;99.90
12321;DHT22;6225;52.720;8.276;2022-08-19T18:32:56;25.40;99.90
12321;DHT22;6225;52.720;8.276;2022-08-19T18:36:00;25.40;99.90
12321;DHT22;6225;52.720;8.276;2022-08-19T18:39:13;25.40;99.90
12321;DHT22;6225;52.720;8.276;2022-08-19T18:42:40;25.30;99.90
12321;DHT22;6225;52.720;8.276;2022-08-19T18:45:50;25.30;99.90
12321;DHT22;6225;52.720;8.276;2022-08-19T18:49:01;25.30;99.90
12321;DHT22;6225;52.720;8.276;2022-08-19T18:55:13;25.20;99.90
12321;DHT22;6225;52.720;8.276;2022-08-19T18:58:22;25.10;99.90
12321;DHT22;6225;52.720;8.276;2022-08-19T19:01:30;25.10;99.90
12321;DHT22;6225;52.720;8.276;2022-08-19T19:04:25;25.00;99.90
12321;DHT22;6225;52.720;8.276;2022-08-19T19:07:19;25.00;99.90
12321;DHT22;6225;52.720;8.276;2022-08-19T19:10:07;24.90;99.90
12321;DHT22;6225;52.720;8.276;2022-08-19T19:12:52;24.80;99.90
12321;DHT22;6225;52.720;8.276;2022-08-19T19:15:39;24.70;99.90
12321;DHT22;6225;52.720;8.276;2022-08-19T19:18:35;24.60;99.90
12321;DHT22;6225;52.720;8.276;2022-08-19T19:21:22;24.50;99.90
12321;DHT22;6225;52.720;8.276;2022-08-19T19:24:07;24.40;99.90
12321;DHT22;6225;52.720;8.276;2022-08-19T19:26:52;24.40;99.90
12321;DHT22;6225;52.720;8.276;2022-08-19T19:29:37;24.30;99.90
12321;DHT22;6225;52.720;8.276;2022-08-19T19:32:25;24.20;99.90
12321;DHT22;6225;52.720;8.276;2022-08-19T19:35:16;24.20;99.90
12321;DHT22;6225;52.720;8.276;2022-08-19T19:38:02;24.10;99.90
12321;DHT22;6225;52.720;8.276;2022-08-19T19:40:51;24.10;99.90
12321;DHT22;6225;52.720;8.276;2022-08-19T19:43:37;24.10;99.90
12321;DHT22;6225;52.720;8.276;2022-08-19T19:46:22;24.00;99.90
12321;DHT22;6225;52.720;8.276;2022-08-19T19:49:11;24.00;99.90
12321;DHT22;6225;52.720;8.276;2022-08-19T19:51:55;23.90;99.90
12321;DHT22;6225;52.720;8.276;2022-08-19T19:54:40;23.80;99.90
12321;DHT22;6225;52.720;8.276;2022-08-19T19:57:27;23.70;99.90
12321;DHT22;6225;52.720;8.276;2022-08-19T20:00:16;23.70;99.90
12321;DHT22;6225;52.720;8.276;2022-08-19T20:03:03;23.60;99.90
12321;DHT22;6225;52.720;8.276;2022-08-19T20:05:50;23.50;99.90
12321;DHT22;6225;52.720;8.276;2022-08-19T20:08:35;23.50;99.90
12321;DHT22;6225;52.720;8.276;2022-08-19T20:14:30;23.40;99.90
12321;DHT22;6225;52.720;8.276;2022-08-19T20:17:19;23.40;99.90
12321;DHT22;6225;52.720;8.276;2022-08-19T20:20:14;23.40;99.90
12321;DHT22;6225;52.720;8.276;2022-08-19T20:23:01;23.30;99.90
12321;DHT22;6225;52.720;8.276;2022-08-19T20:25:50;23.30;99.90
12321;DHT22;6225;52.720;8.276;2022-08-19T20:28:36;23.20;99.90
12321;DHT22;6225;52.720;8.276;2022-08-19T20:31:25;23.10;99.90
12321;DHT22;6225;52.720;8.276;2022-08-19T20:34:11;23.10;99.90
12321;DHT22;6225;52.720;8.276;2022-08-19T20:37:03;23.10;99.90
12321;DHT22;6225;52.720;8.276;2022-08-19T20:39:52;23.00;99.90
12321;DHT22;6225;52.720;8.276;2022-08-19T20:42:39;22.90;99.90
12321;DHT22;6225;52.720;8.276;2022-08-19T20:45:26;22.80;99.90
12321;DHT22;6225;52.720;8.276;2022-08-19T20:48:19;22.80;99.90
12321;DHT22;6225;52.720;8.276;2022-08-19T20:51:05;22.70;99.90
12321;DHT22;6225;52.720;8.276;2022-08-19T20:54:01;22.70;99.90
12321;DHT22;6225;52.720;8.276;2022-08-19T20:56:55;22.70;99.90
12321;DHT22;6225;52.720;8.276;2022-08-19T20:59:58;22.70;99.90
12321;DHT22;6225;52.720;8.276;2022-08-19T21:02:48;22.70;99.90
12321;DHT22;6225;52.720;8.276;2022-08-19T21:05:34;22.70;99.90
12321;DHT22;6225;52.720;8.276;2022-08-19T21:08:22;22.70;99.90
12321;DHT22;6225;52.720;8.276;2022-08-19T21:11:11;22.70;99.90
12321;DHT22;6225;52.720;8.276;2022-08-19T21:14:06;22.60;99.90
12321;DHT22;6225;52.720;8.276;2022-08-19T21:16:55;22.60;99.90
12321;DHT22;6225;52.720;8.276;2022-08-19T21:19:39;22.60;99.90
12321;DHT22;6225;52.720;8.276;2022-08-19T21:22:30;22.60;99.90
12321;DHT22;6225;52.720;8.276;2022-08-19T21:25:18;22.60;99.90
12321;DHT22;6225;52.720;8.276;2022-08-19T21:28:03;22.60;99.90
12321;DHT22;6225;52.720;8.276;2022-08-19T21:30:49;22.50;99.90
12321;DHT22;6225;52.720;8.276;2022-08-19T21:33:37;22.50;99.90
12321;DHT22;6225;52.720;8.276;2022-08-19T21:36:28;22.50;99.90
12321;DHT22;6225;52.720;8.276;2022-08-19T21:39:15;22.50;99.90
12321;DHT22;6225;52.720;8.276;2022-08-19T21:42:03;22.50;99.90
12321;DHT22;6225;52.720;8.276;2022-08-19T21:44:47;22.50;99.90
12321;DHT22;6225;52.720;8.276;2022-08-19T21:47:32;22.50;99.90
12321;DHT22;6225;52.720;8.276;2022-08-19T21:50:17;22.40;99.90
12321;DHT22;6225;52.720;8.276;2022-08-19T21:53:02;22.40;99.90
12321;DHT22;6225;52.720;8.276;2022-08-19T21:55:47;22.40;99.90
12321;DHT22;6225;52.720;8.276;2022-08-19T21:58:32;22.40;99.90
12321;DHT22;6225;52.720;8.276;2022-08-19T22:01:19;22.40;99.90
12321;DHT22;6225;52.720;8.276;2022-08-19T22:04:03;22.40;99.90
12321;DHT22;6225;52.720;8.276;2022-08-19T22:06:49;22.40;99.90
12321;DHT22;6225;52.720;8.276;2022-08-19T22:09:39;22.40;99.90
12321;DHT22;6225;52.720;8.276;2022-08-19T22:12:27;22.40;99.90
12321;DHT22;6225;52.720;8.276;2022-08-19T22:15:14;22.40;99.90
12321;DHT22;6225;52.720;8.276;2022-08-19T22:18:04;22.40;99.90
12321;DHT22;6225;52.720;8.276;2022-08-19T22:20:50;22.30;99.90
12321;DHT22;6225;52.720;8.276;2022-08-19T22:23:34;22.30;99.90
12321;DHT22;6225;52.720;8.276;2022-08-19T22:26:19;22.30;99.90
12321;DHT22;6225;52.720;8.276;2022-08-19T22:29:03;22.30;99.90
12321;DHT22;6225;52.720;8.276;2022-08-19T22:31:47;22.30;99.90
12321;DHT22;6225;52.720;8.276;2022-08-19T22:34:31;22.30;99.90
12321;DHT22;6225;52.720;8.276;2022-08-19T22:37:16;22.30;99.90
12321;DHT22;6225;52.720;8.276;2022-08-19T22:40:00;22.20;99.90
12321;DHT22;6225;52.720;8.276;2022-08-19T22:43:01;22.20;99.90
12321;DHT22;6225;52.720;8.276;2022-08-19T22:45:48;22.20;99.90
12321;DHT22;6225;52.720;8.276;2022-08-19T22:48:32;22.20;99.90
12321;DHT22;6225;52.720;8.276;2022-08-19T22:51:17;22.10;99.90
12321;DHT22;6225;52.720;8.276;2022-08-19T22:54:19;22.10;99.90
12321;DHT22;6225;52.720;8.276;2022-08-19T22:57:04;22.00;99.90
12321;DHT22;6225;52.720;8.276;2022-08-19T22:59:50;21.90;99.90
12321;DHT22;6225;52.720;8.276;2022-08-19T23:02:36;21.90;99.90
12321;DHT22;6225;52.720;8.276;2022-08-19T23:05:26;21.80;99.90
12321;DHT22;6225;52.720;8.276;2022-08-19T23:08:11;21.80;99.90
12321;DHT22;6225;52.720;8.276;2022-08-19T23:10:55;21.80;99.90
12321;DHT22;6225;52.720;8.276;2022-08-19T23:13:41;21.70;99.90
12321;DHT22;6225;52.720;8.276;2022-08-19T23:16:25;21.70;99.90
12321;DHT22;6225;52.720;8.276;2022-08-19T23:19:10;21.80;99.90
12321;DHT22;6225;52.720;8.276;2022-08-19T23:21:55;21.70;99.90
12321;DHT22;6225;52.720;8.276;2022-08-19T23:24:39;21.70;99.90
12321;DHT22;6225;52.720;8.276;2022-08-19T23:27:23;21.70;99.90
12321;DHT22;6225;52.720;8.276;2022-08-19T23:30:26;21.70;99.90
12321;DHT22;6225;52.720;8.276;2022-08-19T23:33:20;21.60;99.90
12321;DHT22;6225;52.720;8.276;2022-08-19T23:36:11;21.50;99.90
12321;DHT22;6225;52.720;8.276;2022-08-19T23:38:56;21.50;99.90
12321;DHT22;6225;52.720;8.276;2022-08-19T23:41:42;21.50;99.90
12321;DHT22;6225;52.720;8.276;2022-08-19T23:44:27;21.40;99.90
12321;DHT22;6225;52.720;8.276;2022-08-19T23:47:11;21.40;99.90
12321;DHT22;6225;52.720;8.276;2022-08-19T23:49:56;21.30;99.90
12321;DHT22;6225;52.720;8.276;2022-08-19T23:52:49;21.30;99.90
12321;DHT22;6225;52.720;8.276;2022-08-19T23:55:39;21.30;99.90
12321;DHT22;6225;52.720;8.276;2022-08-19T23:58:24;21.20;99.90
